createdAt,value
2018-11-10T00:01:19.921Z,100101.77
2018-11-10T00:03:48.136Z,100102.88
2018-11-10T00:06:16.141Z,100100.05
2018-11-10T00:08:44.145Z,100097.06
2018-11-10T00:11:12.133Z,100097.13
2018-11-10T00:13:40.142Z,100087.92
2018-11-10T00:16:08.161Z,100082.52
2018-11-10T00:18:36.154Z,100091.84
2018-11-10T00:21:04.185Z,100085.61
2018-11-10T00:23:32.169Z,100074.70
2018-11-10T00:26:00.180Z,100069.34
2018-11-10T00:28:28.201Z,100068.11
2018-11-10T00:30:56.212Z,100071.55
2018-11-10T00:33:24.244Z,100061.34
2018-11-10T00:35:52.273Z,100062.09
2018-11-10T00:38:20.273Z,100062.66
2018-11-10T00:40:48.310Z,100057.92
2018-11-10T00:43:16.318Z,100064.08
2018-11-10T00:45:44.318Z,100058.98
2018-11-10T00:48:12.380Z,100057.54
2018-11-10T00:50:40.388Z,100054.20
2018-11-10T00:53:08.376Z,100051.83
2018-11-10T00:55:36.356Z,100046.33
2018-11-10T00:58:04.627Z,100044.03
2018-11-10T01:00:32.634Z,100046.67
2018-11-10T01:03:00.661Z,100035.78
2018-11-10T01:05:28.756Z,100032.35
2018-11-10T01:07:56.795Z,100033.05
2018-11-10T01:10:25.014Z,100026.28
2018-11-10T01:12:53.036Z,100031.69
2018-11-10T01:15:21.065Z,100028.56
2018-11-10T01:17:49.068Z,100027.68
2018-11-10T01:20:17.121Z,100023.50
2018-11-10T01:22:45.120Z,100025.87
2018-11-10T01:25:13.117Z,100022.39
2018-11-10T01:27:41.165Z,100017.38
2018-11-10T01:30:13.339Z,100011.91
2018-11-10T01:32:41.685Z,100005.25
2018-11-10T01:35:09.690Z,100005.48
2018-11-10T01:37:38.069Z,100008.47
2018-11-10T01:40:07.630Z,99994.92
2018-11-10T01:42:35.805Z,99994.44
2018-11-10T01:45:03.828Z,99995.59
2018-11-10T01:47:31.809Z,99992.47
2018-11-10T01:49:59.788Z,99988.00
2018-11-10T01:52:27.777Z,99981.72
2018-11-10T01:54:55.786Z,99975.64
2018-11-10T01:57:23.797Z,99979.50
2018-11-10T01:59:51.822Z,99980.11
2018-11-10T02:02:19.877Z,99973.13
2018-11-10T02:04:47.865Z,99967.55
2018-11-10T02:07:15.963Z,99971.09
2018-11-10T02:09:44.048Z,99970.47
2018-11-10T02:12:12.099Z,99964.45
2018-11-10T02:14:40.257Z,99964.67
2018-11-10T02:17:08.298Z,99960.14
2018-11-10T02:19:36.309Z,99961.30
2018-11-10T02:22:04.320Z,99954.13
2018-11-10T02:24:32.340Z,99952.00
2018-11-10T02:27:00.324Z,99943.80
2018-11-10T02:29:28.321Z,99944.14
2018-11-10T02:31:56.338Z,99935.97
2018-11-10T02:34:24.353Z,99931.44
2018-11-10T02:36:52.372Z,99929.22
2018-11-10T02:39:20.388Z,99923.42
2018-11-10T02:41:48.417Z,99921.05
2018-11-10T02:44:16.525Z,99920.62
2018-11-10T02:46:44.615Z,99917.45
2018-11-10T02:49:12.612Z,99920.12
2018-11-10T02:51:40.764Z,99921.92
2018-11-10T02:54:08.777Z,99922.14
2018-11-10T02:56:36.773Z,99922.47
2018-11-10T02:59:04.809Z,99912.07
2018-11-10T03:01:32.829Z,99915.96
2018-11-10T03:04:00.830Z,99907.89
2018-11-10T03:06:28.825Z,99912.13
2018-11-10T03:08:56.820Z,99911.45
2018-11-10T03:11:24.873Z,99913.60
2018-11-10T03:13:52.992Z,99911.70
2018-11-10T03:16:21.206Z,99907.58
2018-11-10T03:18:49.119Z,99911.45
2018-11-10T03:21:17.175Z,99902.20
2018-11-10T03:23:45.189Z,99904.18
2018-11-10T03:26:13.213Z,99895.43
2018-11-10T03:28:41.204Z,99892.30
2018-11-10T03:31:09.221Z,99886.70
2018-11-10T03:33:37.293Z,99891.65
2018-11-10T03:36:05.393Z,99887.53
2018-11-10T03:38:33.409Z,99880.91
2018-11-10T03:41:01.520Z,99880.50
2018-11-10T03:43:29.501Z,99878.32
2018-11-10T03:45:57.557Z,99874.59
2018-11-10T03:48:25.697Z,99871.47
2018-11-10T03:50:53.764Z,99861.98
2018-11-10T03:53:22.397Z,99854.67
2018-11-10T03:55:50.480Z,99859.59
2018-11-10T03:58:18.785Z,99861.91
2018-11-10T04:00:46.788Z,99847.08
2018-11-10T04:03:14.744Z,99841.80
2018-11-10T04:05:42.791Z,99838.58
2018-11-10T04:08:10.782Z,99836.17
2018-11-10T04:10:38.760Z,99838.61
2018-11-10T04:13:06.749Z,99836.48
2018-11-10T04:15:34.733Z,99823.41
2018-11-10T04:18:02.784Z,99816.10
2018-11-10T04:20:30.798Z,99821.53
2018-11-10T04:22:58.825Z,99819.24
2018-11-10T04:25:26.907Z,99810.82
2018-11-10T04:27:54.939Z,99813.98
2018-11-10T04:30:22.924Z,99806.05
2018-11-10T04:32:50.968Z,99812.80
2018-11-10T04:35:18.958Z,99809.94
2018-11-10T04:37:47.025Z,99808.37
2018-11-10T04:40:15.001Z,99809.84
2018-11-10T04:42:42.993Z,99811.16
2018-11-10T04:45:12.041Z,99815.27
2018-11-10T04:47:40.092Z,99807.88
2018-11-10T04:50:09.720Z,99809.27
2018-11-10T04:52:37.699Z,99809.75
2018-11-10T04:55:06.117Z,99813.33
2018-11-10T04:57:34.132Z,99810.87
2018-11-10T05:00:02.113Z,99812.20
2018-11-10T05:02:30.103Z,99804.52
2018-11-10T05:04:58.124Z,99793.71
2018-11-10T05:07:26.136Z,99789.41
2018-11-10T05:09:54.197Z,99780.50
2018-11-10T05:12:22.200Z,99778.60
2018-11-10T05:14:50.255Z,99778.75
2018-11-10T05:17:18.265Z,99769.11
2018-11-10T05:19:46.338Z,99766.47
2018-11-10T05:22:14.369Z,99760.80
2018-11-10T05:24:42.348Z,99753.61
2018-11-10T05:27:10.377Z,99753.75
2018-11-10T05:29:38.437Z,99755.22
2018-11-10T05:32:06.502Z,99759.92
2018-11-10T05:34:34.490Z,99755.82
2018-11-10T05:37:02.503Z,99759.58
2018-11-10T05:39:30.513Z,99759.58
2018-11-10T05:41:58.609Z,99761.73
2018-11-10T05:44:26.596Z,99763.40
2018-11-10T05:46:54.659Z,99759.58
2018-11-10T05:49:22.656Z,99755.13
2018-11-10T05:51:50.653Z,99760.66
2018-11-10T05:54:18.697Z,99758.73
2018-11-10T05:56:46.711Z,99758.14
2018-11-10T05:59:14.897Z,99758.73
2018-11-10T06:01:42.985Z,99759.82
2018-11-10T06:04:10.984Z,99756.55
2018-11-10T06:06:38.974Z,99754.53
2018-11-10T06:09:08.296Z,99754.53
2018-11-10T06:11:36.289Z,99750.67
2018-11-10T06:14:04.290Z,99751.66
2018-11-10T06:16:32.256Z,99758.02
2018-11-10T06:19:00.497Z,99746.12
2018-11-10T06:21:31.400Z,99745.42
2018-11-10T06:23:59.414Z,99745.77
2018-11-10T06:26:27.913Z,99744.34
2018-11-10T06:28:55.938Z,99743.72
2018-11-10T06:31:23.937Z,99732.70
2018-11-10T06:33:51.969Z,99724.03
2018-11-10T06:36:20.003Z,99731.24
2018-11-10T06:38:48.060Z,99724.74
2018-11-10T06:41:16.108Z,99722.83
2018-11-10T06:43:44.101Z,99720.43
2018-11-10T06:46:12.148Z,99724.77
2018-11-10T06:48:40.529Z,99724.04
2018-11-10T06:51:08.628Z,99717.91
2018-11-10T06:53:36.624Z,99717.78
2018-11-10T06:56:04.662Z,99716.59
2018-11-10T06:58:32.660Z,99715.16
2018-11-10T07:01:00.694Z,99717.80
2018-11-10T07:03:28.776Z,99714.67
2018-11-10T07:05:56.709Z,99715.25
2018-11-10T07:08:24.753Z,99717.06
2018-11-10T07:10:52.740Z,99708.54
2018-11-10T07:13:20.837Z,99711.78
2018-11-10T07:15:48.834Z,99713.80
2018-11-10T07:18:16.974Z,99717.29
2018-11-10T07:20:44.890Z,99712.37
2018-11-10T07:23:12.963Z,99719.83
2018-11-10T07:25:40.982Z,99721.02
2018-11-10T07:28:08.969Z,99724.38
2018-11-10T07:30:36.986Z,99723.41
2018-11-10T07:33:05.410Z,99726.41
2018-11-10T07:35:33.419Z,99728.80
2018-11-10T07:38:01.436Z,99732.53
2018-11-10T07:40:29.489Z,99734.47
2018-11-10T07:42:57.518Z,99728.69
2018-11-10T07:45:25.502Z,99730.12
2018-11-10T07:47:53.497Z,99726.98
2018-11-10T07:50:21.625Z,99711.13
2018-11-10T07:52:49.701Z,99715.47
2018-11-10T07:55:18.561Z,99706.09
2018-11-10T07:57:46.705Z,99712.45
2018-11-10T08:00:17.903Z,99714.75
2018-11-10T08:02:45.904Z,99710.90
2018-11-10T08:05:14.625Z,99714.61
2018-11-10T08:07:43.433Z,99717.52
2018-11-10T08:10:12.014Z,99728.44
2018-11-10T08:12:40.062Z,99732.28
2018-11-10T08:15:10.069Z,99740.21
2018-11-10T08:17:38.174Z,99726.16
2018-11-10T08:20:06.208Z,99734.69
2018-11-10T08:22:34.229Z,99731.31
2018-11-10T08:25:02.262Z,99725.80
2018-11-10T08:27:30.275Z,99721.09
2018-11-10T08:29:58.311Z,99727.58
2018-11-10T08:32:26.530Z,99732.74
2018-11-10T08:34:54.609Z,99731.29
2018-11-10T08:37:22.629Z,99739.57
2018-11-10T08:39:50.677Z,99750.27
2018-11-10T08:42:18.689Z,99746.66
2018-11-10T08:44:46.717Z,99740.41
2018-11-10T08:47:14.725Z,99739.09
2018-11-10T08:49:42.768Z,99750.11
2018-11-10T08:52:10.773Z,99754.71
2018-11-10T08:57:09.271Z,99754.52
2018-11-10T08:59:37.303Z,99754.27
2018-11-10T09:02:05.459Z,99765.83
2018-11-10T09:04:33.506Z,99755.63
2018-11-10T09:07:01.487Z,99757.52
2018-11-10T09:09:30.601Z,99762.47
2018-11-10T09:11:58.580Z,99755.11
2018-11-10T09:14:26.641Z,99752.34
2018-11-10T09:16:54.641Z,99759.45
2018-11-10T09:19:22.653Z,99758.95
2018-11-10T09:21:50.734Z,99768.45
2018-11-10T09:24:18.674Z,99770.55
2018-11-10T09:26:46.708Z,99771.16
2018-11-10T09:29:14.749Z,99775.55
2018-11-10T09:31:42.872Z,99780.39
2018-11-10T09:34:10.856Z,99777.03
2018-11-10T09:36:38.954Z,99770.71
2018-11-10T09:39:07.377Z,99775.90
2018-11-10T09:41:35.690Z,99778.20
2018-11-10T09:44:03.742Z,99776.69
2018-11-10T09:46:31.778Z,99770.24
2018-11-10T09:48:59.759Z,99772.89
2018-11-10T09:51:27.780Z,99770.81
2018-11-10T09:53:55.831Z,99770.38
2018-11-10T09:56:23.875Z,99766.32
2018-11-10T09:58:51.909Z,99770.30
2018-11-10T10:01:20.049Z,99769.61
2018-11-10T10:03:48.012Z,99769.98
2018-11-10T10:06:16.025Z,99760.09
2018-11-10T10:08:44.112Z,99767.94
2018-11-10T10:11:12.052Z,99759.90
2018-11-10T10:13:40.206Z,99763.44
2018-11-10T10:16:08.742Z,99764.21
2018-11-10T10:18:36.721Z,99761.16
2018-11-10T10:21:04.787Z,99763.70
2018-11-10T10:23:32.789Z,99767.97
2018-11-10T10:26:00.821Z,99762.66
2018-11-10T10:28:28.912Z,99764.48
2018-11-10T10:30:56.885Z,99752.00
2018-11-10T10:33:24.966Z,99747.59
2018-11-10T10:35:53.022Z,99741.19
2018-11-10T10:38:21.097Z,99742.85
2018-11-10T10:40:49.154Z,99732.86
2018-11-10T10:43:17.151Z,99730.05
2018-11-10T10:45:45.136Z,99731.69
2018-11-10T10:48:13.167Z,99726.95
2018-11-10T10:50:41.164Z,99729.97
2018-11-10T10:53:09.163Z,99726.09
2018-11-10T10:55:37.341Z,99725.02
2018-11-10T10:58:06.258Z,99718.23
2018-11-10T11:00:39.569Z,99713.13
2018-11-10T11:03:13.027Z,99711.31
2018-11-10T11:05:41.019Z,99719.91
2018-11-10T11:08:09.030Z,99712.52
2018-11-10T11:10:37.058Z,99720.08
2018-11-10T11:13:05.185Z,99718.75
2018-11-10T11:15:33.350Z,99721.45
2018-11-10T11:18:01.274Z,99719.69
2018-11-10T11:20:29.320Z,99710.65
2018-11-10T11:22:57.324Z,99718.09
2018-11-10T11:25:25.312Z,99721.67
2018-11-10T11:27:53.317Z,99720.69
2018-11-10T11:30:21.349Z,99711.86
2018-11-10T11:32:49.456Z,99717.05
2018-11-10T11:35:17.484Z,99713.28
2018-11-10T11:37:45.461Z,99711.69
2018-11-10T11:40:14.395Z,99713.63
2018-11-10T11:42:42.651Z,99714.41
2018-11-10T11:45:11.766Z,99711.69
2018-11-10T11:47:40.306Z,99708.05
2018-11-10T11:50:09.670Z,99715.77
2018-11-10T11:52:38.115Z,99707.43
2018-11-10T11:55:06.578Z,99711.01
2018-11-10T11:57:35.495Z,99705.15
2018-11-10T12:00:05.078Z,99708.02
2018-11-10T12:02:33.106Z,99712.55
2018-11-10T12:05:01.105Z,99708.61
2018-11-10T12:07:29.121Z,99706.20
2018-11-10T12:09:57.161Z,99709.19
2018-11-10T12:12:25.160Z,99704.71
2018-11-10T12:14:53.183Z,99705.39
2018-11-10T12:17:21.201Z,99702.28
2018-11-10T12:19:49.174Z,99705.58
2018-11-10T12:22:17.179Z,99705.16
2018-11-10T12:24:45.249Z,99702.94
2018-11-10T12:27:13.257Z,99703.82
2018-11-10T12:29:41.255Z,99706.66
2018-11-10T12:32:09.317Z,99706.21
2018-11-10T12:34:37.333Z,99708.27
2018-11-10T12:37:05.572Z,99706.38
2018-11-10T12:39:33.587Z,99709.58
2018-11-10T12:42:01.602Z,99708.70
2018-11-10T12:44:29.585Z,99709.31
2018-11-10T12:46:57.593Z,99702.03
2018-11-10T12:49:25.593Z,99707.04
2018-11-10T12:51:53.624Z,99707.02
2018-11-10T12:54:21.621Z,99700.52
2018-11-10T12:56:49.660Z,99705.92
2018-11-10T12:59:17.679Z,99705.47
2018-11-10T13:01:45.725Z,99706.04
2018-11-10T13:04:14.006Z,99708.62
2018-11-10T13:06:42.007Z,99712.55
2018-11-10T13:09:11.073Z,99709.52
2018-11-10T13:11:39.366Z,99710.69
2018-11-10T13:14:08.751Z,99709.91
2018-11-10T13:16:36.820Z,99711.05
2018-11-10T13:19:05.160Z,99703.06
2018-11-10T13:21:33.188Z,99705.91
2018-11-10T13:24:01.202Z,99707.87
2018-11-10T13:26:29.252Z,99705.64
2018-11-10T13:28:57.261Z,99702.13
2018-11-10T13:31:25.471Z,99707.49
2018-11-10T13:33:53.324Z,99705.45
2018-11-10T13:36:21.412Z,99707.38
2018-11-10T13:38:49.562Z,99706.55
2018-11-10T13:41:17.498Z,99708.14
2018-11-10T13:43:45.603Z,99705.16
2018-11-10T13:46:13.654Z,99705.45
2018-11-10T13:48:41.644Z,99702.88
2018-11-10T13:51:09.861Z,99706.23
2018-11-10T13:53:37.729Z,99701.17
2018-11-10T13:56:05.920Z,99703.59
2018-11-10T13:58:34.008Z,99697.28
2018-11-10T14:01:02.081Z,99691.95
2018-11-10T14:03:30.766Z,99693.27
2018-11-10T14:05:58.766Z,99691.69
2018-11-10T14:08:26.783Z,99694.34
2018-11-10T14:10:54.817Z,99688.70
2018-11-10T14:13:22.818Z,99694.59
2018-11-10T14:15:50.814Z,99684.27
2018-11-10T14:18:18.846Z,99689.41
2018-11-10T14:20:47.009Z,99691.23
2018-11-10T14:23:14.917Z,99693.01
2018-11-10T14:25:42.929Z,99694.34
2018-11-10T14:28:10.998Z,99697.09
2018-11-10T14:30:39.245Z,99696.75
2018-11-10T14:33:07.258Z,99698.34
2018-11-10T14:35:35.259Z,99691.38
2018-11-10T14:38:03.260Z,99693.30
2018-11-10T14:40:31.249Z,99691.03
2018-11-10T14:42:59.290Z,99695.98
2018-11-10T14:45:27.290Z,99691.92
2018-11-10T14:47:55.432Z,99698.52
2018-11-10T14:50:23.432Z,99697.91
2018-11-10T14:52:51.596Z,99693.71
2018-11-10T14:55:19.450Z,99696.81
2018-11-10T14:57:47.452Z,99696.70
2018-11-10T15:00:17.313Z,99697.50
2018-11-10T15:02:45.341Z,99699.34
2018-11-10T15:05:13.741Z,99698.52
2018-11-10T15:07:42.736Z,99695.38
2018-11-10T15:10:12.465Z,99693.22
2018-11-10T15:12:40.932Z,99698.63
2018-11-10T15:15:10.400Z,99702.11
2018-11-10T15:17:38.826Z,99700.91
2018-11-10T15:20:07.465Z,99702.97
2018-11-10T15:22:35.674Z,99701.39
2018-11-10T15:25:03.657Z,99710.05
2018-11-10T15:27:31.869Z,99707.29
2018-11-10T15:29:59.901Z,99711.28
2018-11-10T15:32:27.953Z,99710.08
2018-11-10T15:34:55.988Z,99715.83
2018-11-10T15:37:24.026Z,99711.53
2018-11-10T15:39:58.872Z,99716.83
2018-11-10T15:42:26.904Z,99712.00
2018-11-10T15:44:54.959Z,99715.02
2018-11-10T15:47:23.090Z,99709.98
2018-11-10T15:49:51.099Z,99715.86
2018-11-10T15:52:19.101Z,99712.25
2018-11-10T15:54:47.253Z,99710.91
2018-11-10T15:57:15.345Z,99714.97
2018-11-10T15:59:43.361Z,99711.98
2018-11-10T16:02:11.408Z,99712.20
2018-11-10T16:04:39.391Z,99713.58
2018-11-10T16:07:07.378Z,99715.28
2018-11-10T16:09:35.392Z,99715.02
2018-11-10T16:12:03.505Z,99714.34
2018-11-10T16:14:31.553Z,99716.87
2018-11-10T16:16:59.610Z,99718.68
2018-11-10T16:19:27.596Z,99717.81
2018-11-10T16:21:55.673Z,99713.50
2018-11-10T16:24:23.702Z,99716.75
2018-11-10T16:26:51.766Z,99714.48
2018-11-10T16:29:19.820Z,99717.47
2018-11-10T16:31:47.801Z,99713.38
2018-11-10T16:34:15.824Z,99716.98
2018-11-10T16:36:43.906Z,99713.38
2018-11-10T16:39:11.928Z,99711.63
2018-11-10T16:41:40.069Z,99712.69
2018-11-10T16:44:08.241Z,99709.50
2018-11-10T16:46:36.253Z,99706.80
2018-11-10T16:49:04.513Z,99708.92
2018-11-10T16:51:32.537Z,99707.86
2018-11-10T16:54:00.513Z,99701.47
2018-11-10T16:56:28.631Z,99699.69
2018-11-10T16:58:56.720Z,99694.55
2018-11-10T17:01:24.658Z,99697.73
2018-11-10T17:03:52.652Z,99691.61
2018-11-10T17:06:20.687Z,99694.63
2018-11-10T17:08:48.719Z,99686.12
2018-11-10T17:11:16.708Z,99687.55
2018-11-10T17:13:44.918Z,99685.48
2018-11-10T17:16:12.941Z,99678.98
2018-11-10T17:18:41.038Z,99681.58
2018-11-10T17:21:09.017Z,99675.67
2018-11-10T17:23:37.149Z,99676.28
2018-11-10T17:26:05.175Z,99675.42
2018-11-10T17:28:33.204Z,99677.83
2018-11-10T17:31:01.213Z,99670.38
2018-11-10T17:33:29.223Z,99667.86
2018-11-10T17:35:57.287Z,99669.48
2018-11-10T17:38:25.264Z,99670.50
2018-11-10T17:40:53.264Z,99667.97
2018-11-10T17:43:21.268Z,99668.11
2018-11-10T17:45:49.236Z,99673.23
2018-11-10T17:48:17.332Z,99670.02
2018-11-10T17:50:45.285Z,99676.89
2018-11-10T17:53:13.353Z,99676.74
2018-11-10T17:55:41.332Z,99680.11
2018-11-10T17:58:09.320Z,99677.12
2018-11-10T18:00:37.298Z,99679.39
2018-11-10T18:03:05.641Z,99673.49
2018-11-10T18:05:33.677Z,99688.24
2018-11-10T18:08:01.743Z,99671.30
2018-11-10T18:10:29.741Z,99683.21
2018-11-10T18:12:57.845Z,99677.42
2018-11-10T18:15:25.765Z,99676.52
2018-11-10T18:17:53.793Z,99681.80
2018-11-10T18:20:21.825Z,99676.28
2018-11-10T18:22:49.836Z,99676.86
2018-11-10T18:25:17.998Z,99672.28
2018-11-10T18:27:45.993Z,99670.73
2018-11-10T18:30:14.809Z,99675.67
2018-11-10T18:32:43.319Z,99673.63
2018-11-10T18:35:11.933Z,99678.23
2018-11-10T18:37:40.224Z,99675.42
2018-11-10T18:40:08.385Z,99671.45
2018-11-10T18:42:36.297Z,99662.30
2018-11-10T18:45:04.317Z,99667.48
2018-11-10T18:47:32.473Z,99668.42
2018-11-10T18:50:00.529Z,99666.64
2018-11-10T18:52:28.699Z,99671.82
2018-11-10T18:54:56.585Z,99681.08
2018-11-10T18:57:24.792Z,99678.18
2018-11-10T18:59:52.829Z,99678.44
2018-11-10T19:02:20.897Z,99680.71
2018-11-10T19:04:48.987Z,99684.45
2018-11-10T19:07:17.000Z,99691.49
2018-11-10T19:09:45.044Z,99691.64
2018-11-10T19:12:13.031Z,99686.00
2018-11-10T19:14:41.023Z,99691.41
2018-11-10T19:17:09.016Z,99691.30
2018-11-10T19:19:37.047Z,99682.64
2018-11-10T19:22:05.364Z,99690.92
2018-11-10T19:24:33.457Z,99682.38
2018-11-10T19:27:01.483Z,99689.02
2018-11-10T19:29:29.490Z,99682.48
2018-11-10T19:31:57.573Z,99690.28
2018-11-10T19:34:25.753Z,99694.02
2018-11-10T19:36:53.776Z,99692.70
2018-11-10T19:39:21.844Z,99693.19
2018-11-10T19:41:49.905Z,99694.59
2018-11-10T19:44:18.007Z,99693.53
2018-11-10T19:46:45.972Z,99690.63
2018-11-10T19:49:14.057Z,99686.61
2018-11-10T19:51:42.403Z,99692.06
2018-11-10T19:54:11.085Z,99693.12
2018-11-10T19:56:39.117Z,99686.62
2018-11-10T19:59:07.100Z,99681.73
2018-11-10T20:01:35.177Z,99684.23
2018-11-10T20:04:03.221Z,99686.34
2018-11-10T20:06:31.305Z,99685.97
2018-11-10T20:08:59.310Z,99682.95
2018-11-10T20:11:27.289Z,99689.87
2018-11-10T20:13:55.421Z,99679.24
2018-11-10T20:16:23.334Z,99683.21
2018-11-10T20:18:51.353Z,99674.40
2018-11-10T20:21:19.341Z,99678.98
2018-11-10T20:23:47.475Z,99676.33
2018-11-10T20:26:15.548Z,99675.88
2018-11-10T20:28:43.585Z,99682.72
2018-11-10T20:31:11.586Z,99676.33
2018-11-10T20:33:39.792Z,99681.52
2018-11-10T20:36:07.934Z,99689.56
2018-11-10T20:38:36.009Z,99685.33
2018-11-10T20:41:04.022Z,99696.41
2018-11-10T20:43:32.012Z,99696.09
2018-11-10T20:46:00.063Z,99694.89
2018-11-10T20:48:28.047Z,99700.33
2018-11-10T20:50:56.191Z,99698.28
2018-11-10T20:55:57.640Z,99701.27
2018-11-10T20:58:25.653Z,99698.75
2018-11-10T21:00:53.713Z,99700.20
2018-11-10T21:03:21.740Z,99698.25
2018-11-10T21:05:49.820Z,99696.59
2018-11-10T21:08:17.777Z,99699.92
2018-11-10T21:10:45.857Z,99691.06
2018-11-10T21:13:13.929Z,99700.47
2018-11-10T21:15:41.928Z,99695.31
2018-11-10T21:18:09.969Z,99696.53
2018-11-10T21:20:38.037Z,99694.80
2018-11-10T21:23:06.065Z,99695.06
2018-11-10T21:25:34.111Z,99695.92
2018-11-10T21:28:02.117Z,99686.40
2018-11-10T21:30:30.227Z,99681.83
2018-11-10T21:32:58.274Z,99683.41
2018-11-10T21:35:26.449Z,99683.41
2018-11-10T21:37:54.371Z,99675.27
2018-11-10T21:40:22.456Z,99681.48
2018-11-10T21:42:50.493Z,99678.70
2018-11-10T21:45:18.772Z,99679.67
2018-11-10T21:47:46.980Z,99672.94
2018-11-10T21:50:18.441Z,99668.34
2018-11-10T21:52:46.662Z,99676.05
2018-11-10T21:55:16.897Z,99668.72
2018-11-10T21:57:45.515Z,99672.00
2018-11-10T22:00:15.457Z,99674.16
2018-11-10T22:02:44.144Z,99673.06
2018-11-10T22:05:12.275Z,99682.58
2018-11-10T22:07:40.378Z,99678.58
2018-11-10T22:10:10.169Z,99680.14
2018-11-10T22:12:38.196Z,99682.89
2018-11-10T22:15:08.468Z,99681.45
2018-11-10T22:17:36.466Z,99686.98
2018-11-10T22:20:05.261Z,99689.88
2018-11-10T22:22:33.267Z,99685.05
2018-11-10T22:25:01.257Z,99678.58
2018-11-10T22:27:29.320Z,99685.08
2018-11-10T22:29:57.307Z,99689.05
2018-11-10T22:32:25.352Z,99687.50
2018-11-10T22:34:53.542Z,99691.30
2018-11-10T22:37:21.574Z,99690.34
2018-11-10T22:39:49.611Z,99688.65
2018-11-10T22:42:17.707Z,99682.75
2018-11-10T22:44:45.713Z,99683.78
2018-11-10T22:47:13.773Z,99685.71
2018-11-10T22:49:41.764Z,99685.25
2018-11-10T22:52:09.768Z,99686.31
2018-11-10T22:54:37.764Z,99686.80
2018-11-10T22:57:06.067Z,99685.59
2018-11-10T22:59:33.978Z,99680.30
2018-11-10T23:02:01.973Z,99682.20
2018-11-10T23:04:29.985Z,99685.25
2018-11-10T23:06:57.977Z,99684.98
2018-11-10T23:09:26.014Z,99680.87
2018-11-10T23:11:54.011Z,99684.84
2018-11-10T23:14:22.045Z,99684.46
2018-11-10T23:16:50.027Z,99681.63
2018-11-10T23:19:18.054Z,99678.07
2018-11-10T23:21:46.079Z,99676.86
2018-11-10T23:24:14.137Z,99681.28
2018-11-10T23:26:42.129Z,99681.95
2018-11-10T23:29:10.132Z,99681.91
2018-11-10T23:31:38.127Z,99684.27
2018-11-10T23:34:06.242Z,99681.23
2018-11-10T23:36:34.241Z,99681.05
2018-11-10T23:39:02.238Z,99684.12
2018-11-10T23:41:30.238Z,99689.72
2018-11-10T23:43:58.282Z,99691.45
2018-11-10T23:46:26.406Z,99686.05
2018-11-10T23:48:54.423Z,99685.97
2018-11-10T23:51:22.466Z,99690.25
2018-11-10T23:53:50.521Z,99686.09
2018-11-10T23:56:18.531Z,99689.56
2018-11-10T23:58:46.517Z,99687.52
